Time;durP1;ratioP1;P1;durP2;ratioP2;P2;SDS_P1;SDS_P2;PMS_P1;PMS_P2;Temp;Humidity;BMP_temperature;BMP_pressure;BME280_temperature;BME280_humidity;BME280_pressure;Samples;Min_cycle;Max_cycle;Signal;HPM_P1;HPM_P2
2023/07/23 00:01:14;;;;;;;0.77;0.77;;;;;;;28.02;100.00;99877.03;5051678;28;20655;-69
2023/07/23 00:03:41;;;;;;;0.52;0.52;;;;;;;28.16;100.00;99913.56;5038125;28;20671;-70
2023/07/23 00:06:07;;;;;;;0.95;0.95;;;;;;;28.13;100.00;99921.75;5047933;28;20458;-69
2023/07/23 00:08:34;;;;;;;0.80;0.80;;;;;;;27.56;100.00;99910.88;5033241;28;20228;-69
2023/07/23 00:11:02;;;;;;;0.77;0.77;;;;;;;27.43;100.00;99905.34;5038064;28;20192;-69
2023/07/23 00:13:29;;;;;;;1.00;1.00;;;;;;;27.14;100.00;99908.81;5018184;28;20269;-69
2023/07/23 00:15:56;;;;;;;1.45;0.90;;;;;;;26.92;100.00;99909.13;5053451;28;20199;-69
2023/07/23 00:18:23;;;;;;;0.80;0.80;;;;;;;26.79;100.00;99902.69;5053256;28;20218;-69
2023/07/23 00:20:49;;;;;;;1.20;0.88;;;;;;;26.43;100.00;99904.69;5017971;28;20632;-69
2023/07/23 00:23:16;;;;;;;0.70;0.70;;;;;;;26.39;100.00;99904.00;5041738;28;20211;-69
2023/07/23 00:25:43;;;;;;;0.95;0.80;;;;;;;26.11;100.00;99875.28;5026270;28;20208;-68
2023/07/23 00:28:11;;;;;;;1.65;1.10;;;;;;;26.25;100.00;99884.38;5053059;28;20241;-70
2023/07/23 00:30:38;;;;;;;1.13;1.10;;;;;;;26.20;100.00;99875.78;5053038;28;20207;-69
2023/07/23 00:33:05;;;;;;;2.45;1.10;;;;;;;26.23;100.00;99875.63;5052914;28;20199;-70
2023/07/23 00:35:32;;;;;;;0.77;0.77;;;;;;;26.15;100.00;99887.47;5017118;28;20683;-69
2023/07/23 00:37:59;;;;;;;0.98;0.95;;;;;;;26.17;100.00;99882.09;5053014;28;20212;-70
2023/07/23 00:40:25;;;;;;;0.80;0.80;;;;;;;26.12;100.00;99895.59;5051102;28;20200;-70
2023/07/23 00:42:52;;;;;;;0.95;0.93;;;;;;;26.00;100.00;99890.94;5052351;28;20207;-70
2023/07/23 00:45:22;;;;;;;2.13;0.90;;;;;;;26.05;100.00;99890.69;5052672;28;20187;-70
2023/07/23 00:47:49;;;;;;;0.85;0.80;;;;;;;25.99;100.00;99898.97;5052532;28;20290;-70
2023/07/23 00:50:16;;;;;;;1.85;0.98;;;;;;;26.06;100.00;99911.03;5052677;28;20234;-70
2023/07/23 00:52:44;;;;;;;1.08;1.02;;;;;;;26.11;100.00;99912.50;5052299;28;20685;-70
2023/07/23 00:55:10;;;;;;;1.10;0.70;;;;;;;26.13;100.00;99931.03;5052621;28;20671;-70
2023/07/23 00:57:37;;;;;;;1.00;1.00;;;;;;;26.21;100.00;99958.13;5017155;28;20230;-70
2023/07/23 01:00:07;;;;;;;1.65;0.98;;;;;;;25.67;100.00;99903.25;5052430;28;20670;-71
2023/07/23 01:02:35;;;;;;;0.70;0.70;;;;;;;26.37;100.00;100024.66;4985965;28;20235;-70
2023/07/23 01:05:02;;;;;;;0.70;0.70;;;;;;;26.53;100.00;100061.03;5051904;28;20720;-70
2023/07/23 01:07:32;;;;;;;1.20;0.80;;;;;;;26.47;100.00;100137.63;5052552;28;20219;-70
2023/07/23 01:10:02;;;;;;;0.80;0.77;;;;;;;26.29;100.00;100160.63;5052140;28;20230;-71
2023/07/23 01:12:29;;;;;;;2.05;1.95;;;;;;;25.93;100.00;100151.72;5017596;28;20261;-70
2023/07/23 01:14:56;;;;;;;1.52;1.45;;;;;;;25.89;100.00;100174.94;5051870;28;20204;-72
2023/07/23 01:17:24;;;;;;;1.17;0.90;;;;;;;25.85;100.00;100199.91;5052453;28;20203;-70
2023/07/23 01:20:03;;;;;;;0.98;0.98;;;;;;;25.46;100.00;100206.97;5051538;28;20198;-70
2023/07/23 01:22:31;;;;;;;2.50;1.60;;;;;;;24.98;100.00;100194.00;5051825;28;20203;-70
2023/07/23 01:24:57;;;;;;;1.00;0.95;;;;;;;24.61;100.00;100179.59;5051877;28;20187;-69
2023/07/23 01:27:24;;;;;;;1.25;1.02;;;;;;;24.23;100.00;100155.53;5051792;28;20573;-73
2023/07/23 01:29:51;;;;;;;0.90;0.90;;;;;;;24.17;100.00;100146.06;5051622;28;20698;-73
2023/07/23 01:32:18;;;;;;;3.13;2.00;;;;;;;24.23;100.00;100129.03;5051775;28;20705;-73
2023/07/23 01:34:45;;;;;;;0.60;0.60;;;;;;;24.24;100.00;100138.72;5051275;28;20679;-72
2023/07/23 01:37:12;;;;;;;1.33;0.95;;;;;;;24.01;100.00;100159.00;5051607;28;20211;-72
2023/07/23 01:39:40;;;;;;;0.73;0.73;;;;;;;23.78;100.00;100148.44;5034197;28;20231;-73
2023/07/23 01:42:10;;;;;;;1.50;1.13;;;;;;;23.73;100.00;100182.16;5051541;28;20202;-72
2023/07/23 01:44:37;;;;;;;0.85;0.85;;;;;;;23.66;100.00;100162.13;5051562;28;20203;-77
2023/07/23 01:47:04;;;;;;;0.88;0.88;;;;;;;23.45;100.00;100134.66;5051874;28;20204;-73
2023/07/23 01:49:31;;;;;;;1.25;0.98;;;;;;;23.43;100.00;100085.38;5016469;28;20222;-73
2023/07/23 01:51:58;;;;;;;0.90;0.90;;;;;;;23.50;100.00;100122.13;5051359;28;20202;-72
2023/07/23 01:54:25;;;;;;;0.80;0.80;;;;;;;23.38;100.00;100158.72;5051373;28;20674;-73
2023/07/23 01:56:53;;;;;;;0.80;0.80;;;;;;;23.33;100.00;100184.50;5016561;28;20210;-72
2023/07/23 01:59:20;;;;;;;2.60;1.20;;;;;;;23.10;100.00;100158.84;5051194;28;20243;-73
2023/07/23 02:01:47;;;;;;;3.40;2.88;;;;;;;23.03;100.00;100136.19;5051340;28;20207;-72
2023/07/23 02:04:13;;;;;;;1.52;0.95;;;;;;;22.87;100.00;100088.22;5050849;28;20211;-72
2023/07/23 02:06:40;;;;;;;0.75;0.75;;;;;;;23.00;100.00;100084.25;5051185;28;20210;-72
2023/07/23 02:09:07;;;;;;;1.20;0.90;;;;;;;23.15;100.00;100025.47;5050735;28;20230;-72
2023/07/23 02:11:34;;;;;;;0.77;0.77;;;;;;;23.18;100.00;99984.84;5051132;28;20659;-72
2023/07/23 02:14:02;;;;;;;1.00;0.85;;;;;;;23.39;100.00;100015.78;5050988;28;20207;-72
2023/07/23 02:16:29;;;;;;;0.80;0.80;;;;;;;23.40;100.00;100019.28;5051103;28;20269;-72
2023/07/23 02:18:56;;;;;;;0.75;0.75;;;;;;;23.47;100.00;99994.34;5050979;28;20207;-72
2023/07/23 02:21:23;;;;;;;1.08;1.02;;;;;;;23.85;100.00;100022.81;5051281;28;20203;-73
2023/07/23 02:23:51;;;;;;;0.80;0.80;;;;;;;23.80;100.00;99993.00;5051251;28;20253;-70
2023/07/23 02:26:18;;;;;;;0.80;0.75;;;;;;;23.70;100.00;99991.63;5031212;28;20900;-71
2023/07/23 02:28:45;;;;;;;0.70;0.70;;;;;;;23.80;100.00;99993.00;5030729;28;20747;-71
2023/07/23 02:31:13;;;;;;;1.15;1.00;;;;;;;23.89;100.00;99989.97;5049579;28;20261;-71
2023/07/23 02:33:40;;;;;;;0.80;0.80;;;;;;;23.71;100.00;99996.03;5050525;28;20198;-71
2023/07/23 02:36:07;;;;;;;0.70;0.70;;;;;;;23.54;100.00;99993.19;5050872;28;20215;-71
2023/07/23 02:38:33;;;;;;;0.70;0.70;;;;;;;23.57;100.00;100006.28;5050759;28;20206;-71
2023/07/23 02:41:00;;;;;;;0.70;0.70;;;;;;;23.65;100.00;99993.63;5050463;28;20199;-71
2023/07/23 02:43:27;;;;;;;1.45;1.25;;;;;;;23.73;100.00;99996.81;5050555;28;20296;-71
2023/07/23 02:45:54;;;;;;;0.80;0.80;;;;;;;23.69;100.00;99971.38;5050885;28;20203;-71
2023/07/23 02:48:22;;;;;;;1.55;1.02;;;;;;;23.74;100.00;99972.06;5050668;28;20615;-70
2023/07/23 02:50:49;;;;;;;0.60;0.60;;;;;;;23.77;100.00;99993.13;5050249;28;20191;-70
2023/07/23 02:53:16;;;;;;;1.13;0.90;;;;;;;23.75;100.00;99994.13;5050488;28;20199;-70
2023/07/23 02:55:42;;;;;;;0.77;0.77;;;;;;;23.78;100.00;99994.84;5050450;28;20203;-70
2023/07/23 02:58:09;;;;;;;0.85;0.80;;;;;;;23.72;100.00;99996.88;5050410;28;20780;-70
2023/07/23 03:00:37;;;;;;;0.95;0.85;;;;;;;23.77;100.00;100002.84;5049875;28;20211;-71
2023/07/23 03:03:07;;;;;;;0.70;0.70;;;;;;;23.82;100.00;100001.75;5049850;28;20195;-70
2023/07/23 03:05:35;;;;;;;1.05;0.95;;;;;;;23.98;100.00;100005.47;5054613;28;20235;-71
2023/07/23 03:08:02;;;;;;;0.63;0.63;;;;;;;23.82;100.00;100012.34;5054854;28;20199;-70
2023/07/23 03:10:29;;;;;;;1.00;0.80;;;;;;;23.63;100.00;100033.38;5054225;28;20306;-70
2023/07/23 03:12:56;;;;;;;0.80;0.80;;;;;;;23.57;100.00;100020.41;5054532;28;20211;-72
2023/07/23 03:15:23;;;;;;;1.45;0.93;;;;;;;23.77;100.00;100034.63;5054903;28;20594;-77
2023/07/23 03:17:50;;;;;;;0.80;0.80;;;;;;;23.81;100.00;100031.78;5054638;28;20200;-71
2023/07/23 03:20:17;;;;;;;0.95;0.80;;;;;;;23.72;100.00;100042.75;5054321;28;20249;-70
2023/07/23 03:22:46;;;;;;;0.73;0.73;;;;;;;23.84;100.00;100026.38;5054296;28;20203;-70
2023/07/23 03:25:12;;;;;;;0.70;0.70;;;;;;;23.83;100.00;100039.69;5054298;28;20191;-70
2023/07/23 03:27:39;;;;;;;1.10;0.85;;;;;;;23.94;100.00;100043.63;5054182;28;20195;-70
2023/07/23 03:30:07;;;;;;;0.75;0.75;;;;;;;24.02;100.00;100061.84;5053887;28;20960;-70
2023/07/23 03:32:34;;;;;;;1.83;0.90;;;;;;;23.96;100.00;100062.09;4970305;28;20290;-70
2023/07/23 03:35:01;;;;;;;0.80;0.80;;;;;;;23.93;100.00;100073.69;5054739;28;20199;-70
2023/07/23 03:37:28;;;;;;;0.65;0.60;;;;;;;23.94;100.00;100091.28;5053949;28;20196;-70
2023/07/23 03:39:56;;;;;;;0.70;0.70;;;;;;;24.36;100.00;100087.88;5053281;28;20214;-69
2023/07/23 03:42:24;;;;;;;1.50;0.90;;;;;;;24.19;100.00;100097.38;5054190;28;20670;-69
2023/07/23 03:44:51;;;;;;;0.70;0.70;;;;;;;24.23;100.00;100079.56;5053901;28;20195;-69
2023/07/23 03:47:19;;;;;;;0.70;0.70;;;;;;;24.54;100.00;100103.88;5053953;28;20647;-70
2023/07/23 03:49:47;;;;;;;0.80;0.80;;;;;;;24.63;100.00;100098.19;5053510;28;20230;-71
2023/07/23 03:52:14;;;;;;;0.70;0.70;;;;;;;24.51;100.00;100081.94;5053957;28;20257;-70
2023/07/23 03:54:41;;;;;;;0.70;0.70;;;;;;;24.35;100.00;100102.06;5053704;28;20632;-69
2023/07/23 03:57:09;;;;;;;0.60;0.60;;;;;;;24.76;100.00;100101.19;5053456;28;20192;-70
2023/07/23 03:59:37;;;;;;;1.02;1.02;;;;;;;25.47;100.00;100116.59;5017728;28;20227;-70
2023/07/23 04:02:06;;;;;;;0.70;0.70;;;;;;;25.70;100.00;100120.91;5053562;28;20207;-70
2023/07/23 04:04:33;;;;;;;0.60;0.60;;;;;;;25.83;100.00;100103.47;5053384;28;20278;-70
2023/07/23 04:07:00;;;;;;;0.82;0.73;;;;;;;25.96;100.00;100111.72;5053649;28;20234;-69
2023/07/23 04:09:27;;;;;;;0.82;0.80;;;;;;;26.33;100.00;100117.00;5053243;28;20223;-69
2023/07/23 04:11:54;;;;;;;0.90;0.90;;;;;;;25.90;100.00;100118.16;5053927;28;20200;-70
2023/07/23 04:14:22;;;;;;;0.70;0.70;;;;;;;25.31;100.00;100109.41;5052632;28;20199;-70
2023/07/23 04:16:50;;;;;;;1.02;0.90;;;;;;;24.75;100.00;100027.00;5053618;28;20207;-70
2023/07/23 04:19:17;;;;;;;0.70;0.70;;;;;;;25.24;100.00;100102.66;5053262;28;20211;-69
2023/07/23 04:21:44;;;;;;;2.05;1.08;;;;;;;25.40;100.00;100106.38;5053445;28;20204;-68
2023/07/23 04:24:11;;;;;;;0.60;0.60;;;;;;;25.80;100.00;100111.56;5053152;28;20696;-68
2023/07/23 04:26:37;;;;;;;0.82;0.82;;;;;;;26.01;100.00;100115.00;5053278;28;20603;-69
2023/07/23 04:29:04;;;;;;;0.70;0.70;;;;;;;26.52;100.00;100101.00;5018004;28;20235;-68
2023/07/23 04:31:32;;;;;;;0.80;0.80;;;;;;;26.67;100.00;100107.34;5053221;28;20675;-68
2023/07/23 04:33:59;;;;;;;0.70;0.70;;;;;;;26.63;100.00;100126.13;5051222;28;20701;-67
2023/07/23 04:36:26;;;;;;;0.95;0.85;;;;;;;26.73;100.00;100128.31;5052748;28;20238;-67
2023/07/23 04:38:53;;;;;;;0.73;0.70;;;;;;;26.92;100.00;100138.00;5052936;28;20602;-69
2023/07/23 04:41:19;;;;;;;0.75;0.73;;;;;;;27.04;100.00;100121.38;5052600;28;20674;-68
2023/07/23 04:43:46;;;;;;;1.35;0.88;;;;;;;27.10;100.00;100130.88;5052532;28;20289;-67
2023/07/23 04:46:13;;;;;;;0.60;0.60;;;;;;;27.13;100.00;100141.34;5052682;28;20592;-67
2023/07/23 04:48:42;;;;;;;1.13;0.88;;;;;;;27.10;100.00;100131.72;5052604;28;20207;-67
2023/07/23 04:51:09;;;;;;;0.70;0.70;;;;;;;26.72;100.00;100115.97;5014299;28;20220;-67
2023/07/23 04:53:36;;;;;;;2.05;1.02;;;;;;;26.95;100.00;100135.19;5036735;28;20207;-67
2023/07/23 04:56:05;;;;;;;0.80;0.80;;;;;;;26.63;100.00;100142.09;5052826;28;20657;-68
2023/07/23 04:58:32;;;;;;;1.45;0.88;;;;;;;26.84;100.00;100140.19;5034213;28;20235;-68
2023/07/23 05:01:05;;;;;;;0.80;0.80;;;;;;;26.64;100.00;100137.66;5052967;28;20200;-67
2023/07/23 05:03:32;;;;;;;1.15;0.90;;;;;;;26.50;100.00;100071.84;5052590;28;20192;-68
2023/07/23 05:06:03;;;;;;;1.35;1.25;;;;;;;27.56;100.00;100151.50;5052483;28;20196;-68
2023/07/23 05:08:29;;;;;;;1.13;1.05;;;;;;;27.56;100.00;100145.31;5052344;28;20227;-69
2023/07/23 05:10:59;;;;;;;3.95;1.73;;;;;;;27.82;100.00;100157.22;5052482;28;20681;-70
2023/07/23 05:13:25;;;;;;;1.48;1.38;;;;;;;27.73;100.00;100158.56;5051631;28;20202;-68
2023/07/23 05:15:55;;;;;;;1.50;0.93;;;;;;;27.74;100.00;100146.13;5017156;28;20199;-68
2023/07/23 05:18:23;;;;;;;0.80;0.80;;;;;;;26.69;100.00;100146.25;5052148;28;20204;-70
2023/07/23 05:20:50;;;;;;;0.90;0.90;;;;;;;26.51;100.00;100148.00;5051833;28;20302;-68
2023/07/23 05:23:18;;;;;;;0.75;0.75;;;;;;;27.14;100.00;100159.06;5051552;28;20206;-68
2023/07/23 05:25:45;;;;;;;2.97;1.88;;;;;;;27.66;100.00;100167.84;5051171;28;20667;-72
2023/07/23 05:28:11;;;;;;;0.70;0.70;;;;;;;27.90;100.00;100160.31;5051054;28;20199;-68
2023/07/23 05:30:39;;;;;;;0.93;0.65;;;;;;;28.42;100.00;100168.97;5050668;28;20681;-70
2023/07/23 05:33:06;;;;;;;0.63;0.63;;;;;;;28.71;100.00;100173.53;5045801;28;20681;-69
2023/07/23 05:35:33;;;;;;;1.75;1.05;;;;;;;28.95;100.00;100174.75;5048429;28;20207;-69
2023/07/23 05:37:59;;;;;;;0.80;0.80;;;;;;;28.64;100.00;100180.13;5047062;28;20199;-69
2023/07/23 05:40:30;;;;;;;2.72;0.95;;;;;;;28.75;100.00;100188.41;5050398;28;20260;-69
2023/07/23 05:42:57;;;;;;;1.83;1.00;;;;;;;28.80;100.00;100181.00;5049944;28;20221;-68
2023/07/23 05:45:23;;;;;;;1.25;1.10;;;;;;;28.76;100.00;100182.09;5041293;28;20206;-68
2023/07/23 05:47:50;;;;;;;0.82;0.82;;;;;;;28.84;100.00;100182.53;5049213;28;20198;-69
2023/07/23 05:50:17;;;;;;;0.60;0.60;;;;;;;28.75;100.00;100182.22;5049688;28;20223;-69
2023/07/23 05:52:44;;;;;;;0.70;0.70;;;;;;;28.96;100.00;100181.81;5050891;28;20191;-70
2023/07/23 05:55:11;;;;;;;0.77;0.77;;;;;;;29.00;100.00;100183.34;5049997;28;20214;-68
2023/07/23 05:57:39;;;;;;;0.80;0.80;;;;;;;29.15;100.00;100180.69;5044354;28;20235;-69
2023/07/23 06:00:07;;;;;;;1.50;0.90;;;;;;;28.55;100.00;100176.19;5049538;28;20209;-67
2023/07/23 06:02:34;;;;;;;0.60;0.60;;;;;;;28.51;100.00;100179.97;5048043;28;20195;-69
2023/07/23 06:05:01;;;;;;;1.55;1.00;;;;;;;28.52;100.00;100180.84;5050270;28;20630;-69
2023/07/23 06:07:27;;;;;;;0.70;0.70;;;;;;;28.48;100.00;100184.63;5049490;28;20214;-68
2023/07/23 06:09:54;;;;;;;0.73;0.73;;;;;;;28.31;100.00;100192.72;5050415;28;20612;-69
2023/07/23 06:12:21;;;;;;;0.90;0.90;;;;;;;28.64;100.00;100196.16;5050376;28;20754;-68
2023/07/23 06:14:49;;;;;;;1.30;0.80;;;;;;;28.63;100.00;100199.75;5049612;28;20772;-69
2023/07/23 06:17:16;;;;;;;0.80;0.80;;;;;;;27.46;100.00;100133.44;5041623;28;20264;-70
2023/07/23 06:19:43;;;;;;;1.25;1.15;;;;;;;28.25;100.00;100204.59;5044266;28;20196;-69
2023/07/23 06:22:10;;;;;;;0.93;0.73;;;;;;;28.60;100.00;100196.41;5049316;28;20272;-70
2023/07/23 06:24:36;;;;;;;0.70;0.70;;;;;;;28.42;100.00;100206.31;5050355;28;20199;-69
2023/07/23 06:27:04;;;;;;;0.80;0.80;;;;;;;28.54;100.00;100205.59;5050635;28;20191;-71
2023/07/23 06:29:30;;;;;;;0.73;0.73;;;;;;;28.32;100.00;100210.47;5049975;28;20281;-70
2023/07/23 06:31:59;;;;;;;1.15;0.93;;;;;;;28.01;100.00;100205.91;5050496;28;20191;-70
2023/07/23 06:34:25;;;;;;;0.70;0.70;;;;;;;27.98;100.00;100198.06;5050062;28;20199;-70
2023/07/23 06:36:52;;;;;;;0.77;0.77;;;;;;;27.71;100.00;100197.78;5050456;28;20666;-69
2023/07/23 06:39:20;;;;;;;0.73;0.73;;;;;;;27.63;100.00;100202.66;5049498;28;20560;-69
2023/07/23 06:41:47;;;;;;;1.45;0.98;;;;;;;27.20;100.00;100208.47;5031695;28;20198;-70
2023/07/23 06:44:14;;;;;;;2.88;1.10;;;;;;;27.15;100.00;100191.88;5050211;28;20671;-69
2023/07/23 06:46:41;;;;;;;1.45;0.80;;;;;;;27.16;100.00;100129.66;5047565;28;20855;-69
2023/07/23 06:49:12;;;;;;;1.75;0.95;;;;;;;28.03;100.00;100204.91;5050418;28;20748;-70
2023/07/23 06:51:38;;;;;;;0.70;0.70;;;;;;;28.05;100.00;100208.31;5050037;28;20251;-70
2023/07/23 06:54:05;;;;;;;1.65;1.00;;;;;;;27.95;100.00;100201.78;5045250;28;20200;-69
2023/07/23 06:56:32;;;;;;;0.70;0.70;;;;;;;28.06;100.00;100207.38;5049202;28;20802;-69
2023/07/23 06:58:59;;;;;;;1.38;0.90;;;;;;;27.97;100.00;100213.22;5049746;28;20223;-69
2023/07/23 07:01:26;;;;;;;0.85;0.85;;;;;;;27.46;100.00;100202.69;5049326;28;20207;-68
2023/07/23 07:03:53;;;;;;;1.95;1.00;;;;;;;27.49;100.00;100221.16;5049769;28;20253;-70
2023/07/23 07:06:21;;;;;;;0.80;0.80;;;;;;;27.99;100.00;100214.00;5049825;28;20188;-69
2023/07/23 07:08:48;;;;;;;1.40;0.98;;;;;;;27.70;100.00;100221.84;5049819;28;20195;-69
2023/07/23 07:11:14;;;;;;;2.60;1.08;;;;;;;27.43;100.00;100224.97;5049226;28;20622;-68
2023/07/23 07:13:41;;;;;;;0.82;0.80;;;;;;;27.24;100.00;100224.22;5014526;28;20690;-68
2023/07/23 07:16:10;;;;;;;2.30;1.15;;;;;;;27.04;100.00;100221.69;5049510;28;20587;-69
2023/07/23 07:18:36;;;;;;;0.73;0.63;;;;;;;27.28;100.00;100225.78;5047183;28;20199;-69
2023/07/23 07:21:03;;;;;;;2.78;1.17;;;;;;;27.33;100.00;100210.41;5044703;28;20219;-70
2023/07/23 07:23:32;;;;;;;1.52;0.95;;;;;;;27.53;100.00;100220.06;5047601;28;20260;-69
2023/07/23 07:26:00;;;;;;;1.23;0.98;;;;;;;26.87;100.00;100226.97;5049593;28;20208;-69
2023/07/23 07:28:27;;;;;;;1.75;1.08;;;;;;;26.93;100.00;100214.22;5047210;28;20261;-68
2023/07/23 07:30:58;;;;;;;1.40;1.30;;;;;;;26.92;100.00;100193.91;5049883;28;20216;-70
2023/07/23 07:33:25;;;;;;;0.63;0.63;;;;;;;27.30;100.00;100217.69;5041414;28;20734;-70
2023/07/23 07:35:53;;;;;;;0.95;0.95;;;;;;;27.49;100.00;100218.50;5046271;28;20212;-69
2023/07/23 07:38:20;;;;;;;1.00;0.80;;;;;;;27.79;100.00;100222.19;5049481;28;20213;-68
2023/07/23 07:40:50;;;;;;;0.80;0.80;;;;;;;27.77;100.00;100223.22;5049732;28;20207;-69
2023/07/23 07:43:17;;;;;;;1.15;0.85;;;;;;;27.79;100.00;100224.84;5050040;28;20203;-69
2023/07/23 07:45:48;;;;;;;0.70;0.70;;;;;;;27.70;100.00;100219.16;5050296;28;20199;-69
2023/07/23 07:48:14;;;;;;;1.58;0.98;;;;;;;27.66;100.00;100236.25;5027343;28;20196;-69
2023/07/23 07:50:41;;;;;;;1.02;1.00;;;;;;;27.77;100.00;100218.75;5041145;28;20734;-69
2023/07/23 07:53:08;;;;;;;1.17;0.77;;;;;;;28.13;100.00;100233.75;5053418;28;20722;-72
2023/07/23 07:55:40;;;;;;;0.77;0.77;;;;;;;28.48;100.00;100236.19;5053921;28;20720;-68
2023/07/23 07:58:12;;;;;;;1.45;0.88;;;;;;;28.26;100.00;100221.44;5053512;28;20326;-68
2023/07/23 08:00:40;;;;;;;0.60;0.60;;;;;;;28.16;100.00;100236.25;5017591;28;20203;-68
2023/07/23 08:03:08;;;;;;;2.00;1.05;;;;;;;28.14;100.00;100244.34;5048596;28;20223;-75
2023/07/23 08:05:35;;;;;;;0.70;0.70;;;;;;;28.39;100.00;100233.19;5039112;28;20666;-70
2023/07/23 08:08:04;;;;;;;1.70;0.82;;;;;;;28.63;100.00;100236.25;5048549;28;20282;-70
2023/07/23 08:10:33;;;;;;;0.82;0.82;;;;;;;28.43;100.00;100229.41;5052653;28;20276;-68
2023/07/23 08:13:01;;;;;;;0.95;0.70;;;;;;;28.26;100.00;100216.09;5052401;28;20208;-68
2023/07/23 08:15:31;;;;;;;0.77;0.73;;;;;;;28.37;100.00;100237.72;5051742;28;20576;-69
2023/07/23 08:17:58;;;;;;;1.15;0.80;;;;;;;28.68;100.00;100227.06;5051621;28;20294;-68
2023/07/23 08:20:27;;;;;;;1.77;1.10;;;;;;;28.70;100.00;100235.84;5050015;28;20196;-68
2023/07/23 08:22:54;;;;;;;0.90;0.82;;;;;;;28.49;100.00;100239.72;5047667;28;20644;-68
2023/07/23 08:25:21;;;;;;;2.05;1.10;;;;;;;28.70;100.00;100240.34;5053181;28;20637;-75
2023/07/23 08:27:58;;;;;;;0.88;0.88;;;;;;;28.82;100.00;100215.63;5053773;28;20222;-72
2023/07/23 08:30:26;;;;;;;2.38;0.93;;;;;;;28.71;100.00;100234.91;5053025;28;20314;-74
2023/07/23 08:32:55;;;;;;;0.80;0.80;;;;;;;29.04;100.00;100230.28;5026859;28;20231;-75
2023/07/23 08:35:22;;;;;;;0.70;0.70;;;;;;;29.00;100.00;100231.41;5034922;28;20204;-73
2023/07/23 08:37:49;;;;;;;3.45;1.27;;;;;;;28.99;98.15;100228.84;5052636;28;20199;-73
2023/07/23 08:40:17;;;;;;;2.45;0.98;;;;;;;29.01;100.00;100227.78;5052751;28;20670;-68
2023/07/23 08:43:29;;;;;;;0.70;0.70;;;;;;;29.11;99.25;100235.28;5017762;28;20203;-71
2023/07/23 08:46:22;;;;;;;1.13;0.77;;;;;;;29.16;96.77;100241.19;4932888;29;20207;-70
2023/07/23 08:49:17;;;;;;;0.50;0.50;;;;;;;29.17;98.15;100242.91;4933061;29;20231;-69
2023/07/23 08:51:45;;;;;;;1.17;0.82;;;;;;;29.15;100.00;100200.25;4913954;29;20231;-68
2023/07/23 08:54:13;;;;;;;1.13;0.75;;;;;;;29.48;96.45;100251.72;4906690;29;20201;-69
2023/07/23 08:56:41;;;;;;;0.70;0.70;;;;;;;29.36;92.84;100247.09;4895762;29;20269;-69
2023/07/23 08:59:09;;;;;;;2.78;0.95;;;;;;;29.37;97.30;100240.81;4880420;29;20645;-70
2023/07/23 09:01:37;;;;;;;0.50;0.50;;;;;;;29.35;91.69;100215.16;4896950;29;20308;-70
2023/07/23 09:04:07;;;;;;;0.70;0.70;;;;;;;29.53;92.70;100240.75;4894229;29;20201;-70
2023/07/23 09:06:34;;;;;;;0.98;0.85;;;;;;;29.46;92.42;100247.44;4894424;29;20205;-69
2023/07/23 09:09:03;;;;;;;0.65;0.65;;;;;;;29.56;96.86;100243.25;4904284;29;20204;-69
2023/07/23 09:11:30;;;;;;;2.72;1.05;;;;;;;29.53;90.17;100251.44;4916834;29;20840;-70
2023/07/23 09:14:00;;;;;;;0.60;0.60;;;;;;;29.33;89.05;100255.31;4920646;29;20651;-70
2023/07/23 09:16:26;;;;;;;3.30;1.10;;;;;;;29.41;90.63;100262.88;4916019;29;20214;-69
2023/07/23 09:18:53;;;;;;;1.85;1.27;;;;;;;29.60;87.34;100260.81;4921769;29;20203;-70
2023/07/23 09:21:26;;;;;;;3.83;1.15;;;;;;;29.74;86.56;100243.94;4952112;28;20209;-69
2023/07/23 09:23:54;;;;;;;0.60;0.60;;;;;;;29.93;86.75;100266.78;5026421;28;20222;-68
2023/07/23 09:26:22;;;;;;;2.17;0.90;;;;;;;30.18;82.68;100273.31;5052395;28;20211;-70
2023/07/23 09:28:51;;;;;;;0.70;0.70;;;;;;;29.73;83.04;100269.81;5052536;28;20208;-71
2023/07/23 09:31:23;;;;;;;1.52;0.90;;;;;;;29.75;85.72;100270.56;5049723;28;20236;-71
2023/07/23 09:33:54;;;;;;;0.60;0.60;;;;;;;29.82;89.07;100271.06;5052568;28;20226;-72
2023/07/23 09:36:21;;;;;;;2.30;1.02;;;;;;;29.83;82.59;100276.31;5045898;28;20298;-74
2023/07/23 09:38:55;;;;;;;0.82;0.80;;;;;;;29.95;78.38;100277.41;5051509;28;20210;-70
2023/07/23 09:41:22;;;;;;;2.35;1.00;;;;;;;29.99;81.01;100282.47;5051998;28;20207;-70
2023/07/23 09:43:49;;;;;;;0.60;0.60;;;;;;;30.00;80.29;100281.50;5051916;28;20720;-70
2023/07/23 09:46:16;;;;;;;1.85;0.88;;;;;;;29.94;80.68;100278.34;5052013;28;20280;-70
2023/07/23 09:48:45;;;;;;;2.40;0.90;;;;;;;30.08;84.12;100261.44;5016822;28;20659;-70
2023/07/23 09:51:12;;;;;;;2.83;0.93;;;;;;;30.12;85.23;100277.22;5051196;28;20258;-70
2023/07/23 09:53:41;;;;;;;2.60;1.00;;;;;;;30.22;85.35;100266.78;5049669;28;20294;-71
2023/07/23 09:56:11;;;;;;;0.77;0.77;;;;;;;30.30;85.22;100269.84;5036959;28;20203;-71
2023/07/23 09:58:38;;;;;;;3.50;1.10;;;;;;;30.20;85.37;100268.72;5000882;28;20239;-72
2023/07/23 10:01:05;;;;;;;0.70;0.70;;;;;;;30.20;86.36;100282.09;5029911;28;20659;-71
2023/07/23 10:03:34;;;;;;;2.28;0.95;;;;;;;30.24;82.37;100280.94;5045292;28;20262;-72
2023/07/23 10:06:01;;;;;;;0.63;0.63;;;;;;;30.06;82.87;100266.03;5046116;28;20195;-73
2023/07/23 10:08:28;;;;;;;1.80;0.90;;;;;;;30.26;84.40;100262.97;5039346;28;20203;-72
2023/07/23 10:10:55;;;;;;;1.08;0.70;;;;;;;30.33;82.85;100275.84;5046816;28;20226;-73
2023/07/23 10:13:23;;;;;;;1.60;0.75;;;;;;;30.27;78.55;100262.00;5043239;28;20276;-73
2023/07/23 10:15:52;;;;;;;0.63;0.63;;;;;;;30.35;77.85;100259.72;5035129;28;21194;-72
2023/07/23 10:18:20;;;;;;;1.20;0.80;;;;;;;30.27;78.68;100270.03;5039173;28;20199;-71
2023/07/23 10:20:47;;;;;;;1.17;0.80;;;;;;;30.52;79.28;100269.38;5050400;28;20199;-72
2023/07/23 10:23:15;;;;;;;0.95;0.80;;;;;;;30.57;80.47;100269.94;5050863;28;20203;-79
2023/07/23 10:25:42;;;;;;;1.75;0.90;;;;;;;30.57;80.43;100251.22;5050821;28;20241;-76
2023/07/23 10:28:10;;;;;;;0.98;0.73;;;;;;;30.58;77.66;100212.75;5050660;28;20206;-74
2023/07/23 10:30:39;;;;;;;2.92;1.10;;;;;;;31.05;75.61;100257.84;5051266;28;20273;-71
2023/07/23 10:33:30;;;;;;;0.95;0.73;;;;;;;31.21;76.27;100247.84;5048894;28;20215;-71
2023/07/23 10:36:04;;;;;;;1.48;0.90;;;;;;;30.79;77.43;100246.13;5050672;28;20209;-77
2023/07/23 10:38:32;;;;;;;2.45;0.95;;;;;;;30.93;74.10;100236.25;5053313;28;20198;-75
2023/07/23 10:41:00;;;;;;;1.45;0.73;;;;;;;31.36;75.88;100246.78;5053220;28;20697;-72
2023/07/23 10:43:38;;;;;;;1.75;0.75;;;;;;;31.71;71.75;100247.06;5033165;28;20206;-72
2023/07/23 10:46:08;;;;;;;0.95;0.90;;;;;;;31.69;68.20;100249.84;5051285;28;20209;-68
2023/07/23 10:48:43;;;;;;;4.30;1.27;;;;;;;31.81;68.33;100256.19;5012687;28;20200;-69
2023/07/23 10:51:12;;;;;;;0.80;0.80;;;;;;;31.90;64.45;100256.41;5031925;28;20345;-74
2023/07/23 10:53:41;;;;;;;4.05;1.10;;;;;;;31.57;64.17;100244.50;5031164;28;20280;-77
2023/07/23 10:56:24;;;;;;;3.90;1.00;;;;;;;31.55;66.08;100249.09;5033894;28;20310;-76
2023/07/23 10:58:51;;;;;;;5.13;1.30;;;;;;;31.63;64.97;100252.97;5042545;28;20322;-70
2023/07/23 11:01:22;;;;;;;0.80;0.80;;;;;;;31.82;65.62;100218.50;5039625;28;20204;-71
2023/07/23 11:03:53;;;;;;;3.92;1.00;;;;;;;31.90;63.22;100256.41;5046096;28;20196;-71
2023/07/23 11:06:30;;;;;;;0.70;0.70;;;;;;;32.43;62.36;100236.47;5045876;28;20191;-70
2023/07/23 11:08:59;;;;;;;2.85;0.85;;;;;;;32.48;62.04;100237.97;5045868;28;20223;-71
2023/07/23 11:11:30;;;;;;;3.20;0.98;;;;;;;32.15;64.36;100244.81;5031903;28;20250;-70
2023/07/23 11:13:57;;;;;;;3.13;0.90;;;;;;;32.14;59.88;100255.66;5046281;28;20237;-71
2023/07/23 11:16:25;;;;;;;1.42;0.70;;;;;;;31.67;59.82;100183.88;5030936;28;20667;-71
2023/07/23 11:18:52;;;;;;;2.65;0.80;;;;;;;32.43;61.18;100252.59;5045028;28;20204;-71
2023/07/23 11:21:19;;;;;;;0.57;0.57;;;;;;;32.29;61.06;100247.34;5034983;28;20226;-72
2023/07/23 11:23:46;;;;;;;2.70;0.95;;;;;;;32.27;63.31;100237.72;5041012;28;20203;-72